Time;durP1;ratioP1;P1;durP2;ratioP2;P2;SDS_P1;SDS_P2;PMS_P1;PMS_P2;Temp;Humidity;BMP_temperature;BMP_pressure;BME280_temperature;BME280_humidity;BME280_pressure;Samples;Min_cycle;Max_cycle;Signal;HPM_P1;HPM_P2
2023/04/09 00:01:21;;;;;;;9.38;8.13;;;6.10;99.90;;;;;;4955322;28;20411;-71
2023/04/09 00:03:46;;;;;;;12.00;8.93;;;6.10;99.90;;;;;;4954317;28;20375;-70
2023/04/09 00:06:12;;;;;;;10.73;8.82;;;6.10;99.90;;;;;;4955874;28;20058;-70
2023/04/09 00:08:38;;;;;;;12.48;10.45;;;6.10;99.90;;;;;;4954682;28;20038;-70
2023/04/09 00:11:03;;;;;;;11.10;9.90;;;6.10;99.90;;;;;;4984008;28;20069;-70
2023/04/09 00:13:29;;;;;;;15.15;11.98;;;6.10;99.90;;;;;;4946265;28;20476;-71
2023/04/09 00:15:55;;;;;;;13.85;12.40;;;6.10;99.90;;;;;;4977844;28;20047;-70
2023/04/09 00:18:20;;;;;;;11.45;10.23;;;6.10;99.90;;;;;;4955918;28;20047;-63
2023/04/09 00:20:46;;;;;;;11.57;10.18;;;6.10;99.90;;;;;;4955103;28;20543;-63
2023/04/09 00:23:12;;;;;;;12.02;10.68;;;6.10;99.90;;;;;;4954483;28;20142;-63
2023/04/09 00:25:37;;;;;;;12.65;10.23;;;6.20;99.90;;;;;;4958749;28;20035;-63
2023/04/09 00:28:03;;;;;;;12.00;10.63;;;6.20;99.90;;;;;;4951614;28;20133;-63
2023/04/09 00:30:29;;;;;;;13.60;12.15;;;6.20;99.90;;;;;;4953028;28;20445;-63
2023/04/09 00:32:55;;;;;;;13.05;11.15;;;6.10;99.90;;;;;;4955760;28;20037;-63
2023/04/09 00:35:21;;;;;;;12.60;11.00;;;6.00;99.90;;;;;;4955012;28;20038;-64
2023/04/09 00:37:46;;;;;;;12.38;11.07;;;6.00;99.90;;;;;;4963725;28;23175;-72
2023/04/09 00:40:13;;;;;;;13.75;12.27;;;6.10;99.90;;;;;;4966575;28;20065;-72
2023/04/09 00:42:38;;;;;;;14.25;12.27;;;6.10;99.90;;;;;;4969382;28;20069;-74
2023/04/09 00:45:05;;;;;;;14.48;12.95;;;6.10;99.90;;;;;;4974864;28;20489;-74
2023/04/09 00:47:31;;;;;;;14.20;12.02;;;6.20;99.90;;;;;;4975259;28;20072;-76
2023/04/09 00:49:57;;;;;;;13.32;11.93;;;6.10;99.90;;;;;;4975143;28;20140;-73
2023/04/09 00:52:23;;;;;;;15.55;13.38;;;6.10;99.90;;;;;;4972530;28;20400;-73
2023/04/09 00:54:50;;;;;;;15.75;13.63;;;6.10;99.90;;;;;;4980285;28;20076;-73
2023/04/09 00:57:16;;;;;;;17.25;15.07;;;6.00;99.90;;;;;;4973681;28;20462;-63
2023/04/09 00:59:45;;;;;;;17.13;15.32;;;6.00;99.90;;;;;;4971593;28;20065;-64
2023/04/09 01:02:11;;;;;;;15.82;14.13;;;6.00;99.90;;;;;;4966167;28;20443;-64
2023/04/09 01:04:40;;;;;;;16.15;14.45;;;6.00;99.90;;;;;;4970317;28;20030;-64
2023/04/09 01:07:19;;;;;;;16.60;14.57;;;6.00;99.90;;;;;;4964478;28;20407;-65
2023/04/09 01:10:02;;;;;;;17.15;13.98;;;6.00;99.90;;;;;;4957114;28;20035;-65
2023/04/09 01:12:52;;;;;;;14.73;13.13;;;6.10;99.90;;;;;;4970323;28;20147;-65
2023/04/09 01:15:25;;;;;;;13.77;12.32;;;6.00;99.90;;;;;;4972443;28;20859;-65
2023/04/09 01:18:08;;;;;;;14.90;13.23;;;6.10;99.90;;;;;;4974804;28;20043;-65
2023/04/09 01:20:40;;;;;;;14.55;12.93;;;6.10;99.90;;;;;;4965672;28;20043;-64
2023/04/09 01:23:30;;;;;;;15.50;13.48;;;6.10;99.90;;;;;;4971178;28;20645;-65
2023/04/09 01:26:10;;;;;;;16.25;13.57;;;6.00;99.90;;;;;;4970309;28;20071;-64
2023/04/09 01:28:41;;;;;;;15.45;13.38;;;6.00;99.90;;;;;;4969184;28;20058;-65
2023/04/09 01:31:12;;;;;;;14.23;12.35;;;5.90;99.90;;;;;;4971382;28;20678;-65
2023/04/09 01:33:40;;;;;;;15.07;12.32;;;6.00;99.90;;;;;;4956958;28;20113;-65
2023/04/09 01:36:06;;;;;;;14.55;13.05;;;6.00;99.90;;;;;;4970188;28;20038;-64
2023/04/09 01:38:38;;;;;;;16.08;13.50;;;6.10;99.90;;;;;;4952205;28;20047;-64
2023/04/09 01:41:05;;;;;;;14.82;13.13;;;6.10;99.90;;;;;;4946900;28;20031;-64
2023/04/09 01:43:33;;;;;;;14.05;12.65;;;6.10;99.90;;;;;;4950610;28;20906;-65
2023/04/09 01:46:01;;;;;;;9.85;8.55;;;6.10;99.90;;;;;;4949884;28;20070;-64
2023/04/09 01:48:29;;;;;;;9.07;8.02;;;6.20;99.90;;;;;;4953982;28;20144;-65
2023/04/09 01:50:56;;;;;;;7.57;6.50;;;6.30;99.90;;;;;;4950479;28;20039;-64
2023/04/09 01:53:22;;;;;;;7.68;6.88;;;6.20;99.90;;;;;;4940662;28;20046;-65
2023/04/09 01:55:47;;;;;;;8.15;7.30;;;6.20;99.90;;;;;;4949725;28;20519;-64
2023/04/09 01:58:13;;;;;;;9.18;8.05;;;6.20;99.90;;;;;;4950019;28;20118;-65
2023/04/09 02:00:46;;;;;;;9.60;7.65;;;6.20;99.90;;;;;;4953759;28;20070;-64
2023/04/09 02:03:24;;;;;;;11.68;7.47;;;6.20;99.90;;;;;;4953284;28;20101;-64
2023/04/09 02:06:05;;;;;;;8.77;7.88;;;6.20;99.90;;;;;;4953206;28;20057;-64
2023/04/09 02:08:33;;;;;;;7.97;7.18;;;6.20;99.90;;;;;;4949198;28;20607;-64
2023/04/09 02:11:02;;;;;;;7.53;6.68;;;6.20;99.90;;;;;;4957017;28;20030;-64
2023/04/09 02:13:31;;;;;;;7.18;6.47;;;6.20;99.90;;;;;;4948478;28;20057;-64
2023/04/09 02:15:58;;;;;;;7.80;6.85;;;6.20;99.90;;;;;;4956407;28;20307;-64
2023/04/09 02:18:26;;;;;;;8.30;7.18;;;6.20;99.90;;;;;;4954540;28;20053;-64
2023/04/09 02:20:53;;;;;;;8.30;7.35;;;6.20;99.90;;;;;;4953638;28;20231;-64
2023/04/09 02:23:19;;;;;;;9.05;8.02;;;6.20;99.90;;;;;;4931173;28;20399;-65
2023/04/09 02:25:45;;;;;;;12.25;11.00;;;6.20;99.90;;;;;;4958951;28;20022;-64
2023/04/09 02:28:10;;;;;;;13.25;11.85;;;6.20;99.90;;;;;;4955199;28;20073;-64
2023/04/09 02:30:36;;;;;;;13.45;11.43;;;6.10;99.90;;;;;;4957672;28;20094;-65
2023/04/09 02:33:02;;;;;;;14.73;13.15;;;6.10;99.90;;;;;;4952692;28;20114;-65
2023/04/09 02:35:28;;;;;;;13.27;11.73;;;6.10;99.90;;;;;;4957214;28;20034;-64
2023/04/09 02:37:54;;;;;;;10.38;9.27;;;6.20;99.90;;;;;;4967392;28;20981;-64
2023/04/09 02:40:19;;;;;;;9.93;8.85;;;6.20;99.90;;;;;;4975116;28;20031;-64
2023/04/09 02:42:45;;;;;;;9.70;8.70;;;6.20;99.90;;;;;;4979147;28;20037;-64
2023/04/09 02:45:11;;;;;;;10.52;9.43;;;6.10;99.90;;;;;;4967542;28;20117;-64
2023/04/09 02:47:36;;;;;;;16.48;12.75;;;6.10;99.90;;;;;;4974558;28;20491;-65
2023/04/09 02:50:02;;;;;;;17.88;14.55;;;6.10;99.90;;;;;;4977763;28;20082;-69
2023/04/09 02:52:28;;;;;;;16.92;14.13;;;6.10;99.90;;;;;;4979255;28;20034;-69
2023/04/09 02:54:54;;;;;;;14.63;12.75;;;6.10;99.90;;;;;;4985513;28;20034;-70
2023/04/09 02:57:19;;;;;;;12.55;11.15;;;6.10;99.90;;;;;;4989858;28;20043;-69
2023/04/09 02:59:45;;;;;;;14.50;12.80;;;6.10;99.90;;;;;;4989168;28;20387;-70
2023/04/09 03:02:11;;;;;;;16.58;13.40;;;6.20;99.90;;;;;;4984748;28;20363;-70
2023/04/09 03:04:37;;;;;;;15.07;13.48;;;6.10;99.90;;;;;;4990721;28;20030;-70
2023/04/09 03:07:03;;;;;;;15.25;12.80;;;6.10;99.90;;;;;;4986103;28;20082;-69
2023/04/09 03:09:29;;;;;;;15.63;13.55;;;6.10;99.90;;;;;;4978096;28;20042;-69
2023/04/09 03:11:56;;;;;;;15.50;13.75;;;6.10;99.90;;;;;;4986395;28;20034;-64
2023/04/09 03:14:24;;;;;;;14.65;13.02;;;6.10;99.90;;;;;;4973604;28;20034;-63
2023/04/09 03:16:50;;;;;;;15.93;13.70;;;6.20;99.90;;;;;;4972506;28;20415;-65
2023/04/09 03:19:16;;;;;;;12.32;11.02;;;6.20;99.90;;;;;;4972617;28;20495;-64
2023/04/09 03:21:41;;;;;;;12.40;10.45;;;6.20;99.90;;;;;;4977085;28;20042;-65
2023/04/09 03:24:07;;;;;;;13.10;11.80;;;6.20;99.90;;;;;;4975302;28;20035;-64
2023/04/09 03:26:36;;;;;;;12.90;11.55;;;6.20;99.90;;;;;;4969469;28;20062;-64
2023/04/09 03:29:03;;;;;;;14.93;13.35;;;6.20;99.90;;;;;;4974238;28;20027;-69
2023/04/09 03:31:29;;;;;;;17.40;15.20;;;6.20;99.90;;;;;;4977806;28;20070;-69
2023/04/09 03:33:54;;;;;;;16.85;14.40;;;6.20;99.90;;;;;;4979125;28;20026;-69
2023/04/09 03:36:20;;;;;;;15.43;13.27;;;6.20;99.90;;;;;;4976988;28;20127;-69
2023/04/09 03:38:45;;;;;;;15.93;13.20;;;6.20;99.90;;;;;;4975757;28;20047;-69
2023/04/09 03:41:11;;;;;;;13.40;12.00;;;6.10;99.90;;;;;;4974403;28;20046;-70
2023/04/09 03:43:37;;;;;;;14.77;12.95;;;6.10;99.90;;;;;;4975381;28;20582;-70
2023/04/09 03:46:13;;;;;;;15.45;12.82;;;6.10;99.90;;;;;;4969370;28;20038;-64
2023/04/09 03:48:40;;;;;;;13.48;11.52;;;6.00;99.90;;;;;;4975105;28;20141;-64
2023/04/09 03:51:05;;;;;;;13.27;11.23;;;6.10;99.90;;;;;;4971569;28;20033;-64
2023/04/09 03:53:31;;;;;;;12.48;11.18;;;6.10;99.90;;;;;;4973620;28;20046;-65
2023/04/09 03:55:57;;;;;;;10.38;9.32;;;6.20;99.90;;;;;;4967313;28;20050;-65
2023/04/09 03:58:22;;;;;;;11.30;10.07;;;6.20;99.90;;;;;;4973621;28;20050;-64
2023/04/09 04:00:48;;;;;;;10.68;9.57;;;6.20;99.90;;;;;;4976551;28;20043;-64
2023/04/09 04:03:15;;;;;;;10.80;9.10;;;6.20;99.90;;;;;;4974635;28;20035;-64
2023/04/09 04:05:41;;;;;;;10.90;9.23;;;6.30;99.90;;;;;;4978990;28;20723;-64
2023/04/09 04:08:06;;;;;;;10.63;9.52;;;6.30;99.90;;;;;;4974927;28;20034;-64
2023/04/09 04:10:35;;;;;;;9.85;8.85;;;6.20;99.90;;;;;;4967607;28;20415;-64
2023/04/09 04:13:01;;;;;;;9.75;8.73;;;6.20;99.90;;;;;;4974259;28;20046;-64
2023/04/09 04:15:27;;;;;;;10.02;8.55;;;6.20;99.90;;;;;;4979858;28;20124;-65
2023/04/09 04:17:53;;;;;;;9.90;8.90;;;6.20;99.90;;;;;;4978915;28;20058;-65
2023/04/09 04:20:19;;;;;;;11.65;8.18;;;6.30;99.90;;;;;;4977481;28;20538;-64
2023/04/09 04:22:44;;;;;;;8.93;8.02;;;6.30;99.90;;;;;;4977844;28;20031;-64
2023/04/09 04:25:10;;;;;;;9.10;8.13;;;6.30;99.90;;;;;;4974817;28;20377;-64
2023/04/09 04:27:36;;;;;;;10.05;8.10;;;6.30;99.90;;;;;;4981409;28;20043;-64
2023/04/09 04:30:02;;;;;;;11.32;10.20;;;6.30;99.90;;;;;;4978217;28;20139;-64
2023/04/09 04:32:28;;;;;;;13.07;11.23;;;6.30;99.90;;;;;;4986020;28;20065;-64
2023/04/09 04:34:53;;;;;;;15.10;12.52;;;6.30;99.90;;;;;;4981092;28;20497;-64
2023/04/09 04:37:19;;;;;;;15.82;14.18;;;6.20;99.90;;;;;;4978911;28;20046;-64
2023/04/09 04:39:45;;;;;;;15.77;14.13;;;6.20;99.90;;;;;;4980316;28;20069;-64
2023/04/09 04:42:10;;;;;;;16.60;15.00;;;6.20;99.90;;;;;;4976266;28;20058;-65
2023/04/09 04:44:36;;;;;;;12.93;11.60;;;6.20;99.90;;;;;;4978135;28;20122;-69
2023/04/09 04:47:02;;;;;;;10.15;9.10;;;6.20;99.90;;;;;;4981975;28;20467;-70
2023/04/09 04:49:27;;;;;;;11.27;8.82;;;6.20;99.90;;;;;;4977172;28;20082;-70
2023/04/09 04:51:53;;;;;;;11.75;10.50;;;6.30;99.90;;;;;;4979939;28;20048;-70
2023/04/09 04:54:18;;;;;;;14.45;13.13;;;6.30;99.90;;;;;;4974639;28;20053;-69
2023/04/09 04:56:44;;;;;;;12.30;10.10;;;6.30;99.90;;;;;;4979604;28;20135;-70
2023/04/09 04:59:10;;;;;;;10.88;8.73;;;6.30;99.90;;;;;;4978858;28;20038;-70
2023/04/09 05:01:36;;;;;;;10.02;9.02;;;6.30;99.90;;;;;;4977000;28;20038;-70
2023/04/09 05:04:02;;;;;;;10.93;9.90;;;6.30;99.90;;;;;;4981103;28;20036;-70
2023/04/09 05:06:28;;;;;;;10.82;9.75;;;6.30;99.90;;;;;;4979917;28;20037;-70
2023/04/09 05:08:56;;;;;;;10.55;9.48;;;6.30;99.90;;;;;;4972451;28;20027;-70
2023/04/09 05:11:25;;;;;;;10.23;9.10;;;6.30;99.90;;;;;;4977225;28;20038;-70
2023/04/09 05:13:51;;;;;;;19.67;14.05;;;6.30;99.90;;;;;;4978789;28;20044;-70
2023/04/09 05:16:20;;;;;;;24.63;16.73;;;6.30;99.90;;;;;;4976037;28;20035;-70
2023/04/09 05:18:46;;;;;;;22.85;15.73;;;6.30;99.90;;;;;;4979870;28;20137;-70
2023/04/09 05:21:12;;;;;;;16.75;12.27;;;6.40;99.90;;;;;;4976481;28;20053;-70
2023/04/09 05:23:38;;;;;;;12.15;10.45;;;6.40;99.90;;;;;;4984276;28;20593;-70
2023/04/09 05:26:03;;;;;;;13.95;10.43;;;6.40;99.90;;;;;;4976086;28;20045;-70
2023/04/09 05:28:29;;;;;;;11.02;9.93;;;6.40;99.90;;;;;;4975956;28;20054;-71
2023/04/09 05:30:55;;;;;;;11.88;10.30;;;6.50;99.90;;;;;;4977722;28;20432;-70
2023/04/09 05:33:20;;;;;;;13.70;10.48;;;6.50;99.90;;;;;;4979152;28;20118;-70
2023/04/09 05:35:46;;;;;;;11.13;9.95;;;6.50;99.90;;;;;;4965967;28;20491;-70
2023/04/09 05:38:15;;;;;;;11.65;10.55;;;6.60;99.90;;;;;;4978347;28;20049;-70
2023/04/09 05:40:41;;;;;;;11.77;10.30;;;6.60;99.90;;;;;;4975830;28;20693;-65
2023/04/09 05:43:07;;;;;;;12.05;10.18;;;6.70;99.90;;;;;;4970226;28;20088;-65
2023/04/09 05:45:32;;;;;;;10.65;9.13;;;6.70;99.90;;;;;;4975568;28;20035;-65
2023/04/09 05:47:58;;;;;;;10.45;9.27;;;6.80;99.90;;;;;;4978889;28;20046;-64
2023/04/09 05:50:24;;;;;;;10.25;8.65;;;6.80;99.90;;;;;;4978240;28;20403;-64
2023/04/09 05:52:49;;;;;;;9.57;8.60;;;6.80;99.90;;;;;;4977665;28;20035;-64
2023/04/09 05:55:15;;;;;;;8.82;7.97;;;6.90;99.90;;;;;;4981093;28;20065;-65
2023/04/09 05:57:41;;;;;;;9.80;8.30;;;6.90;99.90;;;;;;4978727;28;20110;-65
2023/04/09 06:00:07;;;;;;;11.13;8.90;;;6.90;99.90;;;;;;4972951;28;20042;-70
2023/04/09 06:02:32;;;;;;;9.02;8.13;;;6.90;99.90;;;;;;4973811;28;20050;-71
2023/04/09 06:04:58;;;;;;;10.23;9.18;;;6.80;99.90;;;;;;4973157;28;20176;-70
2023/04/09 06:07:24;;;;;;;9.85;8.45;;;6.80;99.90;;;;;;4970679;28;21729;-69
2023/04/09 06:09:49;;;;;;;9.57;8.45;;;6.90;99.90;;;;;;4976365;28;20030;-70
2023/04/09 06:12:15;;;;;;;9.18;8.23;;;6.90;99.90;;;;;;4980217;28;20052;-70
2023/04/09 06:14:41;;;;;;;10.85;8.25;;;7.00;99.90;;;;;;4976885;28;20114;-70
2023/04/09 06:17:06;;;;;;;7.95;7.15;;;7.10;99.90;;;;;;4961681;28;20049;-70
2023/04/09 06:19:32;;;;;;;7.82;7.03;;;7.20;99.90;;;;;;4976766;28;20039;-70
2023/04/09 06:21:58;;;;;;;7.40;6.63;;;7.20;99.90;;;;;;4974936;28;20053;-71
2023/04/09 06:24:23;;;;;;;7.20;6.53;;;7.20;99.90;;;;;;4968556;28;20042;-71
2023/04/09 06:26:49;;;;;;;8.93;7.03;;;7.30;99.90;;;;;;4976830;28;20542;-71
2023/04/09 06:29:15;;;;;;;7.35;6.65;;;7.40;99.90;;;;;;4976875;28;20034;-71
2023/04/09 06:31:40;;;;;;;7.25;6.50;;;7.40;99.90;;;;;;4969044;28;20038;-69
2023/04/09 06:34:06;;;;;;;7.00;6.30;;;7.50;99.90;;;;;;4974786;28;20101;-69
2023/04/09 06:36:32;;;;;;;9.15;6.80;;;7.50;99.90;;;;;;4956348;28;20043;-69
2023/04/09 06:38:58;;;;;;;7.75;6.95;;;7.50;99.90;;;;;;4956589;28;20070;-66
2023/04/09 06:41:25;;;;;;;7.25;6.55;;;7.50;99.90;;;;;;4958062;28;20077;-66
2023/04/09 06:43:51;;;;;;;6.90;6.22;;;7.60;99.90;;;;;;4948399;28;20678;-66
2023/04/09 06:46:18;;;;;;;8.43;6.55;;;7.60;99.90;;;;;;4953470;28;20122;-67
2023/04/09 06:48:45;;;;;;;7.57;6.85;;;7.60;99.90;;;;;;4940361;28;20070;-66
2023/04/09 06:51:11;;;;;;;7.93;5.97;;;7.70;99.90;;;;;;4938923;28;20137;-66
2023/04/09 06:53:39;;;;;;;6.35;5.75;;;7.70;99.90;;;;;;4951964;28;20039;-65
2023/04/09 06:56:06;;;;;;;6.65;5.97;;;7.70;99.90;;;;;;4945706;28;20527;-66
2023/04/09 06:58:32;;;;;;;6.90;6.20;;;7.80;99.90;;;;;;4965911;28;20043;-69
2023/04/09 07:00:58;;;;;;;6.95;6.25;;;7.80;99.90;;;;;;4954430;28;20541;-69
2023/04/09 07:03:26;;;;;;;7.20;6.07;;;7.80;99.90;;;;;;4935175;28;20404;-69
2023/04/09 07:05:53;;;;;;;7.40;6.25;;;7.90;99.90;;;;;;4964850;28;20050;-70
2023/04/09 07:08:18;;;;;;;6.72;5.97;;;8.00;99.90;;;;;;4948299;28;20050;-71
2023/04/09 07:10:46;;;;;;;7.45;6.75;;;8.00;99.90;;;;;;4955041;28;20027;-71
2023/04/09 07:13:12;;;;;;;118.78;97.43;;;8.00;99.90;;;;;;4950110;28;20038;-71
2023/04/09 07:15:37;;;;;;;57.58;51.70;;;8.10;99.90;;;;;;4942262;28;20039;-72
2023/04/09 07:18:03;;;;;;;9.07;8.20;;;8.10;99.90;;;;;;4947159;28;20051;-65
2023/04/09 07:20:29;;;;;;;7.40;6.20;;;8.10;99.90;;;;;;4936706;28;20039;-65
2023/04/09 07:22:54;;;;;;;7.10;6.40;;;8.10;99.90;;;;;;4949258;28;20536;-65
2023/04/09 07:25:20;;;;;;;9.95;8.68;;;8.10;99.90;;;;;;4962103;28;20039;-64
2023/04/09 07:27:46;;;;;;;8.07;7.28;;;8.10;99.90;;;;;;4948250;28;20688;-63
2023/04/09 07:30:11;;;;;;;26.98;18.27;;;8.10;99.90;;;;;;4948968;28;20741;-64
2023/04/09 07:32:37;;;;;;;29.02;23.08;;;8.00;99.90;;;;;;4947774;28;20460;-64
2023/04/09 07:35:06;;;;;;;18.40;15.52;;;8.00;99.90;;;;;;4950602;28;20051;-65
2023/04/09 07:37:32;;;;;;;24.40;21.80;;;8.10;99.90;;;;;;4960277;28;20097;-64
2023/04/09 07:39:58;;;;;;;13.73;12.25;;;8.10;99.90;;;;;;4971902;28;20109;-72
2023/04/09 07:42:24;;;;;;;7.82;7.00;;;8.00;99.90;;;;;;4969416;28;20035;-73
2023/04/09 07:44:50;;;;;;;7.03;6.32;;;8.10;99.90;;;;;;4971286;28;20046;-72
2023/04/09 07:47:15;;;;;;;7.05;6.35;;;8.20;99.90;;;;;;4972907;28;20119;-71
2023/04/09 07:49:41;;;;;;;7.80;7.05;;;8.20;99.90;;;;;;4973797;28;20023;-70
2023/04/09 07:52:07;;;;;;;7.75;6.40;;;8.10;99.90;;;;;;4954975;28;20503;-70
2023/04/09 07:54:34;;;;;;;10.18;9.15;;;8.10;99.90;;;;;;4972760;28;20602;-70
2023/04/09 07:57:00;;;;;;;7.95;7.25;;;8.20;99.90;;;;;;4970666;28;20063;-69
2023/04/09 07:59:26;;;;;;;8.40;7.10;;;8.20;99.90;;;;;;4973834;28;20471;-70
2023/04/09 08:01:52;;;;;;;10.25;9.20;;;8.30;99.90;;;;;;4985114;28;20049;-70
2023/04/09 08:04:18;;;;;;;10.02;9.07;;;8.30;99.90;;;;;;4971567;28;20047;-70
2023/04/09 08:06:49;;;;;;;11.18;10.10;;;8.40;99.90;;;;;;4970652;28;20022;-71
2023/04/09 08:09:18;;;;;;;8.43;7.40;;;8.40;99.90;;;;;;4973414;28;20511;-71
2023/04/09 08:11:44;;;;;;;10.02;8.63;;;8.40;99.90;;;;;;4973819;28;20030;-71
2023/04/09 08:14:14;;;;;;;9.52;8.63;;;8.40;99.90;;;;;;4973285;28;20085;-66
2023/04/09 08:16:41;;;;;;;8.07;7.30;;;8.40;99.90;;;;;;4973536;28;20043;-66
2023/04/09 08:19:08;;;;;;;7.93;6.68;;;8.50;99.90;;;;;;4964495;28;20038;-65
2023/04/09 08:21:36;;;;;;;7.70;6.93;;;8.50;99.90;;;;;;4957542;28;20198;-65
2023/04/09 08:24:04;;;;;;;7.18;6.20;;;8.60;99.90;;;;;;4967231;28;21015;-65
2023/04/09 08:26:29;;;;;;;13.60;11.13;;;8.60;99.90;;;;;;4972341;28;20042;-65
2023/04/09 08:28:55;;;;;;;12.65;7.57;;;8.60;99.90;;;;;;4970297;28;20053;-66
2023/04/09 08:31:21;;;;;;;8.15;7.18;;;8.70;99.90;;;;;;4984626;28;20039;-66
2023/04/09 08:33:47;;;;;;;14.30;12.43;;;8.70;99.90;;;;;;4974253;28;20043;-66
2023/04/09 08:36:12;;;;;;;9.98;8.77;;;8.70;99.90;;;;;;4968581;28;20046;-66
2023/04/09 08:38:38;;;;;;;10.32;9.05;;;8.70;99.90;;;;;;4946591;28;20116;-65
2023/04/09 08:41:04;;;;;;;7.97;7.18;;;8.80;99.90;;;;;;4966526;28;20027;-66
2023/04/09 08:43:31;;;;;;;7.60;6.90;;;8.80;99.90;;;;;;4973246;28;20644;-65
2023/04/09 08:45:58;;;;;;;9.50;7.00;;;8.90;99.90;;;;;;4970413;28;20137;-66
2023/04/09 08:48:24;;;;;;;7.88;7.07;;;8.90;99.90;;;;;;4965877;28;20042;-64
2023/04/09 08:50:50;;;;;;;8.15;7.15;;;9.00;99.90;;;;;;4963170;28;20044;-66
2023/04/09 08:53:18;;;;;;;8.10;7.30;;;9.10;99.90;;;;;;4966544;28;20043;-71
2023/04/09 08:55:46;;;;;;;10.57;9.27;;;9.10;99.90;;;;;;4967262;28;20046;-70
2023/04/09 08:58:12;;;;;;;10.02;9.02;;;9.10;99.90;;;;;;4977002;28;20039;-71
2023/04/09 09:00:37;;;;;;;10.82;9.73;;;9.10;99.90;;;;;;4976619;28;20051;-69
2023/04/09 09:03:05;;;;;;;12.00;9.65;;;9.20;99.90;;;;;;4972191;28;20034;-70
2023/04/09 09:05:44;;;;;;;11.55;10.13;;;9.20;99.90;;;;;;4971911;28;20038;-71
2023/04/09 09:08:12;;;;;;;21.92;10.00;;;9.20;99.90;;;;;;4971748;28;20038;-69
2023/04/09 09:10:44;;;;;;;63.28;21.98;;;9.20;99.90;;;;;;4954468;28;20049;-64
2023/04/09 09:13:25;;;;;;;16.75;8.27;;;9.20;99.90;;;;;;4961595;28;20038;-64
2023/04/09 09:15:56;;;;;;;13.05;7.50;;;9.30;99.90;;;;;;4966610;28;20157;-74
2023/04/09 09:18:43;;;;;;;17.70;8.15;;;9.40;99.90;;;;;;4976338;28;20089;-73
2023/04/09 09:21:13;;;;;;;10.82;8.35;;;9.40;99.90;;;;;;4975289;28;20113;-72
2023/04/09 09:23:39;;;;;;;8.43;6.93;;;9.40;99.90;;;;;;4970316;28;20040;-74
2023/04/09 09:26:15;;;;;;;8.48;6.68;;;9.40;99.90;;;;;;4972419;28;20506;-76
2023/04/09 09:28:41;;;;;;;48.25;10.45;;;9.40;99.90;;;;;;4966067;28;20085;-72
2023/04/09 09:31:08;;;;;;;25.55;14.38;;;9.40;99.90;;;;;;4967941;28;20118;-64
2023/04/09 09:33:35;;;;;;;16.25;14.63;;;9.50;99.90;;;;;;4975942;28;20046;-64
2023/04/09 09:36:02;;;;;;;8.35;7.55;;;9.50;99.90;;;;;;4964386;28;20591;-65
2023/04/09 09:38:29;;;;;;;16.88;7.55;;;9.50;99.90;;;;;;4974951;28;20058;-65
2023/04/09 09:40:54;;;;;;;8.10;7.25;;;9.50;99.90;;;;;;4973651;28;20057;-64
2023/04/09 09:43:20;;;;;;;7.55;6.70;;;9.50;99.90;;;;;;4970023;28;20691;-64
2023/04/09 09:45:47;;;;;;;7.45;6.70;;;9.50;99.90;;;;;;4973042;28;20057;-64
2023/04/09 09:48:13;;;;;;;9.35;7.43;;;9.60;99.90;;;;;;4961698;28;20030;-64
2023/04/09 09:50:43;;;;;;;10.15;8.65;;;9.60;99.90;;;;;;4973964;28;20134;-76
2023/04/09 09:53:10;;;;;;;78.82;58.17;;;9.60;99.90;;;;;;4968205;28;20623;-65
2023/04/09 09:55:39;;;;;;;9.48;8.57;;;9.60;99.90;;;;;;4965454;28;20054;-65
2023/04/09 09:58:59;;;;;;;7.50;6.80;;;9.60;99.90;;;;;;4985121;28;20057;-65
2023/04/09 10:01:26;;;;;;;8.00;7.20;;;9.60;99.90;;;;;;4909594;29;20095;-64
2023/04/09 10:03:55;;;;;;;7.53;6.72;;;9.70;99.90;;;;;;4907473;29;20528;-64
2023/04/09 10:06:21;;;;;;;7.95;6.47;;;9.50;99.90;;;;;;4951887;28;20038;-64
2023/04/09 10:08:48;;;;;;;9.15;7.78;;;9.50;99.90;;;;;;4972860;28;20042;-64
2023/04/09 10:11:14;;;;;;;6.95;6.25;;;9.50;99.90;;;;;;4968358;28;20049;-64
2023/04/09 10:13:47;;;;;;;7.28;6.20;;;9.60;99.90;;;;;;4969940;28;20488;-64
2023/04/09 10:16:14;;;;;;;8.32;6.70;;;9.70;99.90;;;;;;4972939;28;20046;-65
2023/04/09 10:18:41;;;;;;;7.82;6.97;;;9.90;99.90;;;;;;4971935;28;20026;-64
2023/04/09 10:21:39;;;;;;;7.38;6.68;;;9.90;99.90;;;;;;4968396;28;20165;-64
2023/04/09 10:24:06;;;;;;;7.38;6.68;;;10.00;99.90;;;;;;4940735;28;20042;-64
2023/04/09 10:26:39;;;;;;;7.47;6.70;;;10.00;99.90;;;;;;4973534;28;20039;-64
2023/04/09 10:29:15;;;;;;;6.97;6.28;;;10.00;99.90;;;;;;4968696;28;20031;-76
2023/04/09 10:31:50;;;;;;;7.75;6.95;;;10.00;99.90;;;;;;4971959;28;20074;-74
2023/04/09 10:34:17;;;;;;;8.52;7.72;;;10.10;99.90;;;;;;4955160;28;20158;-75
2023/04/09 10:36:44;;;;;;;8.38;6.85;;;10.00;99.90;;;;;;4944327;28;20081;-73
2023/04/09 10:39:12;;;;;;;7.28;6.50;;;10.10;99.90;;;;;;4965119;28;20129;-74
2023/04/09 10:41:40;;;;;;;9.55;7.10;;;10.20;99.90;;;;;;4964439;28;20042;-75
2023/04/09 10:44:19;;;;;;;8.00;7.20;;;10.20;99.90;;;;;;4974247;28;20125;-74
2023/04/09 10:46:45;;;;;;;7.82;7.03;;;10.20;99.90;;;;;;4969801;28;20056;-65
2023/04/09 10:49:22;;;;;;;9.82;7.53;;;10.30;99.90;;;;;;4989345;28;20524;-65
2023/04/09 10:52:01;;;;;;;9.85;8.13;;;10.30;99.90;;;;;;4970940;28;20077;-64
2023/04/09 10:54:32;;;;;;;25.48;19.63;;;10.30;99.90;;;;;;4975617;28;20126;-65
2023/04/09 10:57:10;;;;;;;7.70;6.93;;;10.30;99.90;;;;;;4974819;28;20046;-65
2023/04/09 10:59:39;;;;;;;7.20;6.50;;;10.30;99.90;;;;;;4966605;28;20035;-65
2023/04/09 11:02:20;;;;;;;8.30;7.20;;;10.40;99.90;;;;;;4974127;28;20038;-65
2023/04/09 11:05:10;;;;;;;67.78;50.83;;;10.50;99.90;;;;;;4956021;28;20039;-65
2023/04/09 11:07:42;;;;;;;10.52;9.43;;;10.50;99.90;;;;;;4959714;28;20180;-65
2023/04/09 11:10:08;;;;;;;7.93;7.18;;;10.50;99.90;;;;;;4974764;28;20042;-65
2023/04/09 11:12:34;;;;;;;8.63;7.75;;;10.60;99.90;;;;;;4956867;28;20519;-65
2023/04/09 11:14:59;;;;;;;8.00;7.20;;;10.70;99.90;;;;;;4971741;28;20406;-65
2023/04/09 11:17:26;;;;;;;8.30;7.38;;;10.60;99.90;;;;;;4972145;28;20185;-64
2023/04/09 11:19:52;;;;;;;19.73;16.30;;;10.50;99.90;;;;;;4982051;28;20046;-65
2023/04/09 11:22:17;;;;;;;11.30;8.93;;;10.50;99.90;;;;;;4964727;28;20072;-64
2023/04/09 11:24:45;;;;;;;8.73;7.82;;;10.60;99.90;;;;;;4973884;28;20050;-73
2023/04/09 11:27:12;;;;;;;11.68;9.38;;;10.60;99.90;;;;;;4966031;28;20126;-73
2023/04/09 11:29:37;;;;;;;12.93;11.52;;;10.60;99.90;;;;;;4964746;28;20414;-72
2023/04/09 11:32:04;;;;;;;15.20;12.85;;;10.50;99.90;;;;;;4969622;28;20134;-73
2023/04/09 11:34:30;;;;;;;8.60;7.72;;;10.60;99.90;;;;;;4957414;28;20043;-73
2023/04/09 11:36:57;;;;;;;6.93;6.22;;;10.70;99.90;;;;;;4943705;28;20562;-71
2023/04/09 11:39:24;;;;;;;8.20;7.25;;;10.70;99.90;;;;;;4961711;28;20744;-71
2023/04/09 11:41:49;;;;;;;7.72;6.85;;;10.60;99.90;;;;;;4968225;28;20043;-70
2023/04/09 11:44:15;;;;;;;8.18;7.20;;;10.60;99.90;;;;;;4977116;28;20038;-71
2023/04/09 11:46:41;;;;;;;7.90;7.10;;;10.60;99.90;;;;;;4970110;28;20062;-71
2023/04/09 11:49:08;;;;;;;9.00;8.00;;;10.60;99.90;;;;;;4969539;28;20048;-74
2023/04/09 11:51:34;;;;;;;8.68;7.40;;;10.70;99.90;;;;;;4969240;28;20129;-71
2023/04/09 11:54:05;;;;;;;11.50;7.68;;;10.70;99.90;;;;;;4971922;28;20049;-70
2023/04/09 11:56:31;;;;;;;7.40;6.68;;;10.70;99.90;;;;;;4974829;28;20050;-70
2023/04/09 11:58:57;;;;;;;8.30;7.47;;;10.70;99.90;;;;;;4958270;28;20668;-72
2023/04/09 12:01:24;;;;;;;19.50;15.57;;;10.60;99.90;;;;;;4953086;28;20056;-71
2023/04/09 12:03:53;;;;;;;9.18;7.68;;;10.70;99.90;;;;;;4950446;28;20511;-65
2023/04/09 12:06:21;;;;;;;7.85;7.05;;;10.70;99.90;;;;;;4960289;28;20043;-66
2023/04/09 12:08:51;;;;;;;26.13;18.35;;;10.60;99.90;;;;;;4966729;28;20034;-66
2023/04/09 12:11:17;;;;;;;9.63;8.50;;;10.60;99.90;;;;;;4964538;28;20038;-66
2023/04/09 12:13:45;;;;;;;10.48;6.95;;;10.60;99.90;;;;;;4947786;28;20930;-65
2023/04/09 12:16:18;;;;;;;7.78;6.97;;;10.50;99.90;;;;;;4959256;28;20971;-66
2023/04/09 12:18:43;;;;;;;9.00;7.40;;;10.50;99.90;;;;;;4955045;28;20197;-66
2023/04/09 12:21:09;;;;;;;8.52;7.57;;;10.50;99.90;;;;;;4961655;28;20726;-65
2023/04/09 12:23:35;;;;;;;7.60;6.75;;;10.40;99.90;;;;;;4971330;28;20154;-72
2023/04/09 12:26:01;;;;;;;7.68;6.88;;;10.30;99.90;;;;;;4969151;28;20134;-71
2023/04/09 12:28:27;;;;;;;8.13;7.32;;;10.30;99.90;;;;;;4971608;28;20133;-71
2023/04/09 12:30:53;;;;;;;8.75;7.45;;;10.30;99.90;;;;;;4947649;28;20042;-72
2023/04/09 12:33:20;;;;;;;9.10;7.63;;;10.50;99.90;;;;;;4974489;28;20575;-72
2023/04/09 12:35:46;;;;;;;9.23;8.15;;;10.60;99.90;;;;;;4974451;28;20566;-71
2023/04/09 12:38:12;;;;;;;7.05;6.35;;;10.70;99.90;;;;;;4982341;28;20063;-71
2023/04/09 12:40:37;;;;;;;8.85;7.95;;;10.80;99.90;;;;;;4977258;28;20695;-71
2023/04/09 12:43:04;;;;;;;7.85;6.93;;;10.90;99.90;;;;;;4955843;28;20142;-73
2023/04/09 12:45:30;;;;;;;8.90;8.00;;;10.90;99.90;;;;;;4968745;28;20042;-72
2023/04/09 12:47:56;;;;;;;7.60;6.80;;;10.90;99.90;;;;;;4977468;28;20065;-70